x

Virginia Beach 64 Nm East Of Virginia Beach, Va (44014) Wave Buoy

4:50 - Fri 6th Mar 2015 All times are EST. -5 hours from GMT.

  • Sig Wave height 6.9ft
  • Swell Direction
  • Peak Period 8s
  • Average Period 5s
  • Wind
    25mph, 29mph gusts
  • Sea Temp 51°f
  • Luft Temp 36°f
  • Sea Pressure 1028mb
  • Virginia Beach 64 Nm East Of Virginia Beach, Va
  • Virginia Beach 64 Nm East Of Virginia Beach, Va

More Historic Weather Station data

Upgrade to MSW Pro to gain access to the past 30 days of data for over 8000 Wavebouys and Weather Stations around the globe.

Join Pro

Comparision Forecast

View Surf forecast
   
Fr 03/06 4:50 7ft 8s 5s 25 29 mph 1028mb 51f 36f
3:50 8ft 8s 6s 22 29 mph 1028.2mb 51f 36f
2:50 8ft 8s 6s 25 31 mph 1028.3mb 51f 36f
1:50 8ft 8s 5s 27 31 mph 1028.5mb 51f 36f
12:50 7ft 8s 5s 27 31 mph 1029.5mb 51f 36f
11:50 8ft 8s 6s 25 31 mph 1030.3mb 50f 35f
10:50 9ft 8s 6s 25 31 mph 1030.3mb 51f 35f
9:50 9.5ft 8s 6s 25 29 mph 1030.6mb 51f 34f
8:50 10ft 9s 6s 27 31 mph 1030.1mb 52f 33f
7:50 10ft 9s 6s 27 34 mph 1029.4mb 52f 33f
6:50 11ft 8s 6s 29 34 mph 1028.8mb 52f 33f
5:50 11ft 8s 6s 31 38 mph 1028.1mb 52f 34f
4:50 12ft 8s 6s 31 38 mph 1027.2mb 52f 34f
3:50 12ft 8s 6s 31 38 mph 1026.1mb 53f 34f
2:50 12ft 9s 6s 34 40 mph 1025.6mb 53f 34f
1:50 11.5ft 9s 6s 36 43 mph 1025.4mb 53f 33f
12:50 11.5ft 8s 6s 34 43 mph 1024.8mb 53f 34f
Do 03/05 11:50 12ft 8s 6s 36 40 mph 1024.2mb 53f 35f
10:50 10ft 8s 6s 36 43 mph 1023.6mb 52f 36f
9:50 10ft 7s 6s 34 43 mph 1022.1mb 53f 37f
8:50 10ft 8s 6s 34 43 mph 1019.5mb 53f 40f
7:50 9ft 8s 6s 34 40 mph 1018.5mb 53f 43f
6:50 10ft 8s 6s 27 31 mph 1016mb 52f 46f
5:50 10ft 8s 6s 36 43 mph 1018.4mb 52f 42f
4:50 10ft 8s 6s 34 45 mph 1015.8mb 53f 42f
3:50 9ft 7s 6s 34 40 mph 1015.1mb 53f 44f
2:50 8.5ft 7s 6s 29 36 mph 1013.7mb 52f 45f
1:50 7.5ft 7s 5s 29 36 mph 1013.8mb 52f 45f
12:50 8ft 6s 5s 27 31 mph 1014.3mb 51f 45f
11:50 8ft 7s 5s 27 34 mph 1015.2mb 51f 44f
10:50 7ft 6s 5s 22 31 mph 1015.2mb 51f 46f
9:50 6ft 5s 5s 27 31 mph 1014.4mb 51f 46f
8:50 5.5ft 8s 5s 22 27 mph 1014.7mb 51f 47f
7:50 5ft 7s 5s 22 27 mph 1013.7mb 51f 49f
6:50 5ft 6s 5s 7 9 mph 1013mb 51f 51f
5:50 5ft 6s 5s 7 9 mph 1012.6mb 51f 50f
4:50 6ft 7s 5s 11 16 mph 1012.5mb 52f 51f
3:50 7ft 7s 5s 20 25 mph 1011.4mb 52f 55f
2:50 6.5ft 6s 5s 25 27 mph 1011.2mb 52f 55f
1:50 7ft 7s 5s 25 29 mph 1011.6mb 51f 55f
12:50 7ft 7s 5s 25 29 mph 1011.6mb 52f 56f
Mi 03/04 11:50 7ft 7s 5s 25 29 mph 1012mb 52f 55f
10:50 7ft 7s 5s 27 31 mph 1012mb 52f 55f
9:50 6.5ft 7s 5s 27 31 mph 1012mb 52f 57f
8:50 6.5ft 6s 5s 27 31 mph 1011.4mb 52f 57f
7:50 6ft 6s 5s 27 34 mph 1011.1mb 53f 57f
6:50 5ft 6s 5s 22 29 mph 1011.7mb 53f 57f
5:50 5ft 6s 5s 20 25 mph 1011.8mb 53f 56f
4:50 5ft 7s 5s 11 13 mph 1012.6mb 54f 55f
3:50 5ft 8s 6s 13 16 mph 1013.2mb 54f 55f
2:50 5ft 8s 5s 11 13 mph 1013.6mb 54f 54f
1:50 5ft 8s 5s 11 13 mph 1013.9mb 54f 53f
12:50 5.5ft 6s 5s 11 13 mph 1014.9mb 54f 54f
11:50 6ft 8s 6s 13 16 mph 1015.2mb 54f 54f
10:50 6ft 8s 6s 13 18 mph 1015.7mb 55f 55f
9:50 5.5ft 8s 6s 18 22 mph 1015.1mb 55f 56f
8:50 5.5ft 7s 5s 16 18 mph 1015.5mb 55f 54f
7:50 6ft 7s 6s 18 20 mph 1015.4mb 55f 54f
6:50 6ft 8s 6s 16 20 mph 1014.8mb 56f 55f
5:50 6ft 8s 5s 16 20 mph 1014.3mb 56f 56f
4:50 7ft 7s 5s 25 29 mph 1013.4mb 56f 57f
3:50 6ft 7s 5s 25 29 mph 1013.2mb 56f 57f
2:50 6ft 6s 5s 25 29 mph 1014.1mb 56f 57f
1:50 6ft 6s 5s 27 31 mph 1015mb 56f 57f
12:50 5.5ft 6s 5s 31 36 mph 1015.4mb 57f 58f
Di 03/03 11:50 5ft 6s 5s 25 29 mph 1016.2mb 57f 58f
10:50 6ft 6s 5s 22 25 mph 1017.6mb 57f 58f
9:50 6ft 6s 5s 25 29 mph 1018.4mb 58f 59f
8:50 5.5ft 6s 5s 27 31 mph 1018.6mb 58f 59f
7:50 5ft 5s 4s 31 36 mph 1019mb 58f 59f
6:50 4.5ft 4s 4s 29 36 mph 1020mb 59f 58f
5:50 3.5ft 6s 4s 27 34 mph 1020.2mb 61f 58f
4:50 3ft 6s 5s 20 25 mph 1021.3mb 61f 56f
3:50 3ft 6s 5s 11 13 mph 1023.4mb 61f 53f
2:50 3ft 6s 5s 9 13 mph 1024.4mb 62f 51f
1:50 3.5ft 6s 5s 7 11 mph 1025.4mb 62f 50f
12:50 3.5ft 6s 5s 2 7 mph 1027.5mb 62f 49f
11:50 3.5ft 6s 5s 7 9 mph 1028.3mb 62f 48f
10:50 4.5ft 6s 5s 4 7 mph 1029.7mb 62f 47f
9:50 4.5ft 7s 5s 11 16 mph 1029.2mb 62f 47f
8:50 4.5ft 6s 5s 9 13 mph 1029.8mb 62f 46f
7:50 4.5ft 6s 5s 11 18 mph 1028.4mb 62f 45f
6:50 5ft 7s 5s 13 20 mph 1028.3mb 62f 44f
5:50 5ft 6s 5s 13 18 mph 1028.1mb 62f 43f
4:50 5ft 6s 5s 13 20 mph 1027.8mb 60f 43f
3:50 5ft 7s 5s 18 22 mph 1027.7mb 59f 42f
2:50 5.5ft 7s 5s 18 25 mph 1027.8mb 58f 42f
1:50 6ft 7s 5s 18 22 mph 1028.1mb 58f 42f
12:50 5.5ft 6s 5s 22 27 mph 1027.9mb 58f 43f
Mo 03/02 11:50 6ft 6s 5s 22 27 mph 1028mb 57f 43f
10:50 5ft 6s 5s 25 31 mph 1027.8mb 58f 44f